createdAt,value
2018-11-25T00:00:38.344Z,66.00
2018-11-25T00:03:12.887Z,65.90
2018-11-25T00:05:47.045Z,65.80
2018-11-25T00:08:20.828Z,65.90
2018-11-25T00:10:55.021Z,65.80
2018-11-25T00:13:28.820Z,65.80
2018-11-25T00:16:02.612Z,65.80
2018-11-25T00:18:37.126Z,65.90
2018-11-25T00:21:11.369Z,65.80
2018-11-25T00:23:45.200Z,66.10
2018-11-25T00:26:19.004Z,66.10
2018-11-25T00:28:52.848Z,66.20
2018-11-25T00:31:26.728Z,66.20
2018-11-25T00:34:00.535Z,66.40
2018-11-25T00:36:34.372Z,66.40
2018-11-25T00:39:10.665Z,66.40
2018-11-25T00:41:45.501Z,66.60
2018-11-25T00:44:19.373Z,66.50
2018-11-25T00:46:53.177Z,66.50
2018-11-25T00:49:26.966Z,66.70
2018-11-25T00:52:01.173Z,66.80
2018-11-25T00:54:34.960Z,66.70
2018-11-25T00:57:08.795Z,66.80
2018-11-25T00:59:43.142Z,66.70
2018-11-25T01:02:16.979Z,66.80
2018-11-25T01:04:50.773Z,67.00
2018-11-25T01:07:24.630Z,66.90
2018-11-25T01:09:58.465Z,66.90
2018-11-25T01:12:32.270Z,66.80
2018-11-25T01:15:06.436Z,66.80
2018-11-25T01:17:40.264Z,66.80
2018-11-25T01:20:26.041Z,66.70
2018-11-25T01:22:59.902Z,66.70
2018-11-25T01:25:34.464Z,66.80
2018-11-25T01:28:08.575Z,66.70
2018-11-25T01:30:42.375Z,66.80
2018-11-25T01:33:16.469Z,66.70
2018-11-25T01:35:51.037Z,66.60
2018-11-25T01:38:24.857Z,66.50
2018-11-25T01:40:58.665Z,66.50
2018-11-25T01:43:32.445Z,66.50
2018-11-25T01:46:06.373Z,66.50
2018-11-25T01:48:40.144Z,66.50
2018-11-25T01:51:13.964Z,66.60
2018-11-25T01:53:47.833Z,66.50
2018-11-25T01:56:22.374Z,66.50
2018-11-25T01:58:56.184Z,66.50
2018-11-25T02:05:40.561Z,66.50
2018-11-25T02:08:14.360Z,66.50
2018-11-25T02:10:48.250Z,66.80
2018-11-25T02:16:08.180Z,66.90
2018-11-25T02:18:41.960Z,66.80
2018-11-25T02:21:16.493Z,66.70
2018-11-25T02:26:33.245Z,66.60
2018-11-25T02:29:07.118Z,66.50
2018-11-25T02:31:41.022Z,66.50
2018-11-25T02:34:15.105Z,66.50
2018-11-25T02:36:48.911Z,66.50
2018-11-25T02:39:22.732Z,66.50
2018-11-25T02:41:56.593Z,66.40
2018-11-25T02:44:30.429Z,66.40
2018-11-25T02:47:04.616Z,66.40
2018-11-25T02:49:38.379Z,66.40
2018-11-25T02:54:53.656Z,66.40
2018-11-25T02:57:27.462Z,66.40
2018-11-25T03:00:01.611Z,66.20
2018-11-25T03:02:35.704Z,66.20
2018-11-25T03:07:51.061Z,66.30
2018-11-25T03:10:24.844Z,66.30
2018-11-25T03:15:40.511Z,66.20
2018-11-25T03:18:15.074Z,66.20
2018-11-25T03:20:48.941Z,66.10
2018-11-25T03:23:22.780Z,66.20
2018-11-25T03:25:57.188Z,66.10
2018-11-25T03:28:32.088Z,66.20
2018-11-25T03:31:05.949Z,66.10
2018-11-25T03:33:39.789Z,66.00
2018-11-25T03:36:13.577Z,66.00
2018-11-25T03:38:47.701Z,65.90
2018-11-25T03:41:21.518Z,65.90
2018-11-25T03:43:56.492Z,66.00
2018-11-25T03:46:31.013Z,66.00
2018-11-25T03:49:05.585Z,66.00
2018-11-25T03:51:39.351Z,65.90
2018-11-25T03:54:13.176Z,65.90
2018-11-25T03:56:46.938Z,65.90
2018-11-25T03:59:20.800Z,65.80
2018-11-25T04:01:54.638Z,65.90
2018-11-25T04:04:28.562Z,65.80
2018-11-25T04:07:03.149Z,65.80
2018-11-25T04:09:37.017Z,65.70
2018-11-25T04:12:12.333Z,65.80
2018-11-25T04:17:27.945Z,65.70
2018-11-25T04:20:02.913Z,66.10
2018-11-25T04:25:18.488Z,65.80
2018-11-25T04:27:53.098Z,65.80
2018-11-25T04:30:27.666Z,65.90
2018-11-25T04:35:43.012Z,65.90
2018-11-25T04:38:18.038Z,66.70
2018-11-25T04:40:51.844Z,65.80
2018-11-25T04:46:08.178Z,66.00
2018-11-25T04:48:42.360Z,66.10
2018-11-25T04:51:16.158Z,66.10
2018-11-25T04:53:49.968Z,66.20
2018-11-25T04:56:24.023Z,66.10
2018-11-25T04:58:58.541Z,66.10
2018-11-25T05:01:32.384Z,66.10
2018-11-25T05:04:06.217Z,66.10
2018-11-25T05:06:40.025Z,66.20
2018-11-25T05:09:14.015Z,66.10
2018-11-25T05:11:47.784Z,66.00
2018-11-25T05:14:22.332Z,66.10
2018-11-25T05:16:56.132Z,65.90
2018-11-25T05:19:29.924Z,66.00
2018-11-25T05:22:04.510Z,66.10
2018-11-25T05:24:38.351Z,65.90
2018-11-25T05:27:12.873Z,65.90
2018-11-25T05:29:47.398Z,65.80
2018-11-25T05:32:21.577Z,65.80
2018-11-25T05:34:55.369Z,65.90
2018-11-25T05:37:29.221Z,66.10
2018-11-25T05:42:43.380Z,66.20
2018-11-25T05:48:11.278Z,66.20
2018-11-25T05:50:45.882Z,66.30
2018-11-25T05:56:09.581Z,66.20
2018-11-25T05:58:43.458Z,66.20
2018-11-25T06:01:17.512Z,66.20
2018-11-25T06:06:34.745Z,66.10
2018-11-25T06:09:10.444Z,66.10
2018-11-25T06:11:44.527Z,66.10
2018-11-25T06:14:19.371Z,66.10
2018-11-25T06:19:34.676Z,65.90
2018-11-25T06:22:08.982Z,65.80
2018-11-25T06:24:43.095Z,65.70
2018-11-25T06:27:16.886Z,65.60
2018-11-25T06:29:51.391Z,65.70
2018-11-25T06:32:25.222Z,65.60
2018-11-25T06:37:39.385Z,65.60
2018-11-25T06:40:22.976Z,65.50
2018-11-25T06:45:38.960Z,65.50
2018-11-25T06:48:12.828Z,65.50
2018-11-25T06:50:47.685Z,65.40
2018-11-25T06:53:21.505Z,65.30
2018-11-25T06:58:36.757Z,65.40
2018-11-25T07:01:11.404Z,65.40
2018-11-25T07:03:45.249Z,65.30
2018-11-25T07:06:19.316Z,65.40
2018-11-25T07:08:53.074Z,65.30
2018-11-25T07:11:26.813Z,65.30
2018-11-25T07:14:01.425Z,66.10
2018-11-25T07:16:35.238Z,65.30
2018-11-25T07:19:09.849Z,65.70
2018-11-25T07:21:44.436Z,65.50
2018-11-25T07:24:18.220Z,65.30
2018-11-25T07:26:52.042Z,65.30
2018-11-25T07:29:25.812Z,65.30
2018-11-25T07:32:01.121Z,65.40
2018-11-25T07:37:14.532Z,65.40
2018-11-25T07:39:48.408Z,65.40
2018-11-25T07:45:05.376Z,65.20
2018-11-25T07:47:39.269Z,65.20
2018-11-25T07:50:16.308Z,65.10
2018-11-25T07:55:33.206Z,65.10
2018-11-25T07:58:07.534Z,65.10
2018-11-25T08:00:41.281Z,65.10
2018-11-25T08:03:15.849Z,65.20
2018-11-25T08:05:49.637Z,65.20
2018-11-25T08:08:23.388Z,65.20
2018-11-25T08:10:57.214Z,65.20
2018-11-25T08:13:31.017Z,65.20
2018-11-25T08:18:45.140Z,65.10
2018-11-25T08:21:19.652Z,65.00
2018-11-25T08:26:34.884Z,65.00
2018-11-25T08:29:08.760Z,64.90
2018-11-25T08:31:42.538Z,64.80
2018-11-25T08:37:02.301Z,64.80
2018-11-25T08:39:36.218Z,64.70
2018-11-25T08:42:09.961Z,64.70
2018-11-25T08:47:25.219Z,64.90
2018-11-25T08:49:59.852Z,64.70
2018-11-25T08:52:33.630Z,64.70
2018-11-25T08:55:10.073Z,64.70
2018-11-25T08:57:43.825Z,64.70
2018-11-25T09:00:27.611Z,64.70
2018-11-25T09:03:02.031Z,64.80
2018-11-25T09:08:17.350Z,64.70
2018-11-25T09:16:12.078Z,64.50
2018-11-25T09:18:45.931Z,64.30
2018-11-25T09:21:20.772Z,64.10
2018-11-25T09:26:35.683Z,64.10
2018-11-25T09:29:09.676Z,64.00
2018-11-25T09:31:43.480Z,63.90
2018-11-25T09:36:56.881Z,63.60
2018-11-25T09:39:31.472Z,63.60
2018-11-25T09:42:05.313Z,63.40
2018-11-25T09:47:21.381Z,63.20
2018-11-25T09:49:55.211Z,63.20
2018-11-25T09:55:13.292Z,63.30
2018-11-25T09:57:51.668Z,63.20
2018-11-25T10:00:30.281Z,63.20
2018-11-25T10:05:51.269Z,63.20
2018-11-25T10:08:25.840Z,63.30
2018-11-25T10:10:59.676Z,63.30
2018-11-25T10:16:14.960Z,63.10
2018-11-25T10:18:48.779Z,63.20
2018-11-25T10:21:22.576Z,63.20
2018-11-25T10:26:37.897Z,63.20
2018-11-25T10:29:12.454Z,63.20
2018-11-25T10:31:46.244Z,63.10
2018-11-25T10:39:41.365Z,62.70
2018-11-25T10:42:15.337Z,62.60
2018-11-25T10:47:30.920Z,62.60
2018-11-25T10:50:04.729Z,62.50
2018-11-25T10:52:38.505Z,62.50
2018-11-25T10:57:56.397Z,62.50
2018-11-25T11:00:52.992Z,62.40
2018-11-25T11:06:47.004Z,62.50
2018-11-25T11:09:20.808Z,62.50
2018-11-25T11:11:55.344Z,62.80
2018-11-25T11:17:10.661Z,62.90
2018-11-25T11:19:44.494Z,63.00
2018-11-25T11:25:02.363Z,63.00
2018-11-25T11:27:36.183Z,63.00
2018-11-25T11:30:13.973Z,63.50
2018-11-25T11:32:50.456Z,62.60
2018-11-25T11:38:04.561Z,62.60
2018-11-25T11:40:39.089Z,61.80
2018-11-25T11:43:12.922Z,62.30
2018-11-25T11:48:28.300Z,62.30
2018-11-25T11:51:02.097Z,62.30
2018-11-25T11:56:17.405Z,62.20
2018-11-25T11:58:51.202Z,62.20
2018-11-25T12:01:24.976Z,62.10
2018-11-25T12:06:40.601Z,62.00
2018-11-25T12:09:14.470Z,62.00
2018-11-25T12:11:48.519Z,62.10
2018-11-25T12:17:04.122Z,62.00
2018-11-25T12:19:37.989Z,61.90
2018-11-25T12:22:12.615Z,62.00
2018-11-25T12:27:27.913Z,61.80
2018-11-25T12:30:01.727Z,61.80
2018-11-25T12:35:19.144Z,61.80
2018-11-25T12:37:53.692Z,62.80
2018-11-25T12:40:27.465Z,62.00
2018-11-25T12:45:44.214Z,61.90
2018-11-25T12:48:18.033Z,61.80
2018-11-25T12:50:51.846Z,61.80
2018-11-25T12:56:08.049Z,62.60
2018-11-25T12:58:41.868Z,61.80
2018-11-25T13:01:15.661Z,61.90
2018-11-25T13:06:31.126Z,62.00
2018-11-25T13:09:05.321Z,62.00
2018-11-25T13:11:39.188Z,62.00
2018-11-25T13:16:54.522Z,61.80
2018-11-25T13:19:28.325Z,61.80
2018-11-25T13:22:02.629Z,61.80
2018-11-25T13:27:16.017Z,61.80
2018-11-25T13:29:49.813Z,61.90
2018-11-25T13:35:03.846Z,61.80
2018-11-25T13:37:37.688Z,61.80
2018-11-25T13:40:17.335Z,61.90
2018-11-25T13:45:34.165Z,61.80
2018-11-25T13:48:08.834Z,61.80
2018-11-25T13:50:42.627Z,61.80
2018-11-25T13:55:57.945Z,61.40
2018-11-25T13:58:31.824Z,61.40
2018-11-25T14:06:28.779Z,62.10
2018-11-25T14:09:02.597Z,61.30
2018-11-25T14:11:37.119Z,61.50
2018-11-25T14:16:53.168Z,61.50
2018-11-25T14:19:27.010Z,61.50
2018-11-25T14:22:00.822Z,61.50
2018-11-25T14:27:17.512Z,61.70
2018-11-25T14:29:51.356Z,61.70
2018-11-25T14:35:08.445Z,61.60
2018-11-25T14:37:42.313Z,61.70
2018-11-25T14:40:18.171Z,61.80
2018-11-25T14:45:34.188Z,61.70
2018-11-25T14:50:50.273Z,61.80
2018-11-25T14:56:05.636Z,61.80
2018-11-25T14:58:40.371Z,61.80
2018-11-25T15:01:14.135Z,61.90
2018-11-25T15:06:29.750Z,62.00
2018-11-25T15:09:03.408Z,62.00
2018-11-25T15:11:37.419Z,62.00
2018-11-25T15:16:53.513Z,62.10
2018-11-25T15:19:27.416Z,62.30
2018-11-25T15:22:01.179Z,62.40
2018-11-25T15:27:16.525Z,62.40
2018-11-25T15:29:51.181Z,62.30
2018-11-25T15:35:08.047Z,62.30
2018-11-25T15:37:47.365Z,62.40
2018-11-25T15:40:24.327Z,62.50
2018-11-25T15:45:48.832Z,62.50
2018-11-25T15:48:28.089Z,62.60
2018-11-25T15:51:02.193Z,62.50
2018-11-25T15:56:18.248Z,62.70
2018-11-25T15:58:52.091Z,62.60
2018-11-25T16:01:25.940Z,62.70
2018-11-25T16:06:41.748Z,62.70
2018-11-25T16:09:15.636Z,62.80
2018-11-25T16:11:50.206Z,62.70
2018-11-25T16:17:05.563Z,62.60
2018-11-25T16:19:39.797Z,62.60
2018-11-25T16:22:13.572Z,62.60
2018-11-25T16:27:29.656Z,62.70
2018-11-25T16:30:03.547Z,62.90
2018-11-25T16:35:27.341Z,62.70
2018-11-25T16:38:01.924Z,62.90
2018-11-25T16:40:35.728Z,62.80
2018-11-25T16:45:51.354Z,62.90
2018-11-25T16:48:25.152Z,62.90
2018-11-25T16:50:58.960Z,62.90
2018-11-25T16:56:14.275Z,62.90
2018-11-25T16:58:48.284Z,62.90
2018-11-25T17:01:22.127Z,63.00
2018-11-25T17:06:39.106Z,63.00
2018-11-25T17:09:14.824Z,63.00
2018-11-25T17:11:49.669Z,63.00
2018-11-25T17:17:07.524Z,63.00
2018-11-25T17:19:41.342Z,63.10
2018-11-25T17:22:16.737Z,63.20
2018-11-25T17:27:30.748Z,63.30
2018-11-25T17:30:04.532Z,63.20
2018-11-25T17:35:32.291Z,63.20
2018-11-25T17:38:06.077Z,63.20
2018-11-25T17:40:41.254Z,63.20
2018-11-25T17:46:04.441Z,63.10
2018-11-25T17:48:38.229Z,63.10
2018-11-25T17:51:12.768Z,63.10
2018-11-25T17:56:28.409Z,63.20
2018-11-25T17:59:02.515Z,63.20
2018-11-25T18:01:36.316Z,63.00
2018-11-25T18:06:51.804Z,63.00
2018-11-25T18:09:25.916Z,63.00
2018-11-25T18:11:59.761Z,63.00
2018-11-25T18:17:15.058Z,62.90
2018-11-25T18:19:48.872Z,62.90
2018-11-25T18:25:11.302Z,62.90
2018-11-25T18:27:45.128Z,62.80
2018-11-25T18:30:19.531Z,62.70
2018-11-25T18:35:34.822Z,62.60
2018-11-25T18:38:09.930Z,62.70
2018-11-25T18:40:43.748Z,62.80
2018-11-25T18:45:59.530Z,62.70
2018-11-25T18:48:35.356Z,62.50
2018-11-25T18:51:09.888Z,62.60
2018-11-25T18:56:26.657Z,62.70
2018-11-25T18:59:00.519Z,62.60
2018-11-25T19:04:50.081Z,62.60
2018-11-25T19:07:23.956Z,62.70
2018-11-25T19:09:57.744Z,62.70
2018-11-25T19:15:18.709Z,62.70
2018-11-25T19:17:53.408Z,63.10
2018-11-25T19:20:29.547Z,62.90
2018-11-25T19:25:45.555Z,62.90
2018-11-25T19:28:19.408Z,62.90
2018-11-25T19:30:53.203Z,62.80
2018-11-25T19:36:08.926Z,63.00
2018-11-25T19:38:42.792Z,63.10
2018-11-25T19:41:17.333Z,63.80
2018-11-25T19:46:32.654Z,63.30
2018-11-25T19:49:06.842Z,63.30
2018-11-25T19:51:40.606Z,63.30
2018-11-25T19:56:53.963Z,63.40
2018-11-25T19:59:28.921Z,63.70
2018-11-25T20:02:03.729Z,63.80
2018-11-25T20:07:20.581Z,63.80
2018-11-25T20:15:47.786Z,63.90
2018-11-25T20:18:30.242Z,63.90
2018-11-25T20:21:33.342Z,63.90
2018-11-25T20:27:38.178Z,64.00
2018-11-25T20:45:26.269Z,64.30
2018-11-25T20:48:04.097Z,64.60
2018-11-25T20:50:39.655Z,64.40
2018-11-25T20:56:25.786Z,64.50
2018-11-25T20:59:03.531Z,64.40
2018-11-25T21:01:39.416Z,64.60
2018-11-25T21:07:06.740Z,64.70
2018-11-25T21:09:44.152Z,64.80
2018-11-25T21:15:19.936Z,64.80
2018-11-25T21:17:54.755Z,64.70
2018-11-25T21:20:31.922Z,64.70
2018-11-25T21:25:58.571Z,64.60
2018-11-25T21:28:39.138Z,64.70
2018-11-25T21:31:16.071Z,64.70
2018-11-25T21:36:35.070Z,64.70
2018-11-25T21:39:18.300Z,64.70
2018-11-25T21:41:55.145Z,64.80
2018-11-25T21:44:31.614Z,64.90
2018-11-25T21:49:49.702Z,64.90
2018-11-25T21:55:20.510Z,65.00
2018-11-25T21:57:55.147Z,65.00
2018-11-25T22:00:29.519Z,65.80
2018-11-25T22:05:47.983Z,65.10
2018-11-25T22:08:25.402Z,65.10
2018-11-25T22:11:03.852Z,65.20
2018-11-25T22:16:19.798Z,65.20
2018-11-25T22:18:54.152Z,65.10
2018-11-25T22:21:28.905Z,65.30
2018-11-25T22:26:51.658Z,65.20
2018-11-25T22:29:27.581Z,65.30
2018-11-25T22:32:01.755Z,65.30
2018-11-25T22:37:21.198Z,65.20
2018-11-25T22:39:55.937Z,65.20
2018-11-25T22:45:24.740Z,65.10
2018-11-25T22:47:59.437Z,65.20
2018-11-25T22:50:33.721Z,65.20
2018-11-25T22:53:08.173Z,65.20
2018-11-25T22:58:28.366Z,65.30
2018-11-25T23:01:02.225Z,65.20
2018-11-25T23:07:00.927Z,65.30
2018-11-25T23:09:36.293Z,65.20
2018-11-25T23:12:10.110Z,65.10
2018-11-25T23:17:25.341Z,65.30
2018-11-25T23:19:59.159Z,65.30
2018-11-25T23:25:14.672Z,65.40
2018-11-25T23:27:48.509Z,65.40
2018-11-25T23:30:22.329Z,65.40
2018-11-25T23:32:56.120Z,65.40
2018-11-25T23:35:31.397Z,65.40
2018-11-25T23:38:05.205Z,65.30
2018-11-25T23:40:39.552Z,65.40
2018-11-25T23:43:13.985Z,65.50
2018-11-25T23:45:48.573Z,65.40
2018-11-25T23:48:22.377Z,65.30
2018-11-25T23:50:56.149Z,65.30
2018-11-25T23:53:30.260Z,65.40
2018-11-25T23:56:04.051Z,65.40
2018-11-25T23:58:37.876Z,65.40
